Gwyme, Virginia
Current Conditions -  °F | °C
As of 9:15 PM on Thursday 18 Dec 2014 (Local Time) from KW75 Reporting Station
Overcast Overcast  
Wind Chill: 32°   Ceiling: 12000
Heat Index: 37°   Visibility: 10mi
Dew Point: 26°   Wind: 6mph
Humidity: 63%   Direction: 360°N
Pressure: 30.11"   Gusts: NA
Location:  37.4982°N, 76.2873°W
Report Text: KW75 190215Z AUTO 36005KT 10SM OVC120 03/M04 A3011 RMK AO1 T00281036
Loading
Personal Weather Stations






























Interactive Weather Map New forecast layout! Learn more

10-Day Weather Forecast

Advertisements
Track Severe Weather on mobile